• Join FlightAware (Why Join?)
  • Login
  • US Flag 
02:42AM EST


 

Airport Tracker/Info


-or-


 

Live Flight TrackerFlight Track Log ✈ CSC8506 ✈ 01-Aug-2014 ✈ ZSNJ / NKG - ZPPP / KMG

Flight Track Log - Related Links

Times and Time Zones

All times are in EDT time to prevent confusion due to time zone crossing. See the CSC8506 flight status page for this flight to view local times or setup timezone preferences in your user account.

Time Position Orientation Groundspeed Altitude Reporting Facility
EDT Latitude Longitude Course Direction KTS MPH feet Rate Location/Type
11:14AM 31.4929 118.1223 249° West  Level Estimated
11:15AM 31.4570 118.0169 248° West  Level Estimated
11:16AM 31.4210 117.9116 248° West  Level Estimated
11:17AM 31.3849 117.8064 248° West  Level Estimated
11:18AM 31.3487 117.7013 248° West  Level Estimated
11:19AM 31.3124 117.5963 248° West  Level Estimated
11:20AM 31.2760 117.4913 248° West  Level Estimated
11:21AM 31.2396 117.3865 248° West  Level Estimated
11:22AM 31.2030 117.2817 248° West  Level Estimated
11:23AM 31.1664 117.1769 248° West  Level Estimated
11:24AM 31.1297 117.0723 248° West  Level Estimated
11:25AM 31.0929 116.9678 248° West  Level Estimated
11:26AM 31.0560 116.8633 248° West  Level Estimated
11:27AM 31.0191 116.7589 248° West  Level Estimated
11:28AM 30.9820 116.6546 248° West  Level Estimated
11:29AM 30.9449 116.5504 247° West  Level Estimated
11:30AM 30.9077 116.4462 247° West  Level Estimated
11:31AM 30.8704 116.3422 247° West  Level Estimated
11:32AM 30.8330 116.2382 247° West  Level Estimated
11:33AM 30.7956 116.1343 247° West  Level Estimated
11:34AM 30.7581 116.0305 247° West  Level Estimated
11:35AM 30.7204 115.9267 247° West  Level Estimated
11:36AM 30.6827 115.8231 247° West  Level Estimated
11:37AM 30.6449 115.7195 247° West  Level Estimated
11:38AM 30.6071 115.6160 247° West  Level Estimated
11:39AM 30.5691 115.5126 247° West  Level Estimated
11:40AM 30.5311 115.4093 247° West  Level Estimated
11:41AM 30.4930 115.3060 247° West  Level Estimated
11:42AM 30.4548 115.2028 247° West  Level Estimated
11:43AM 30.4165 115.0997 247° West  Level Estimated
11:44AM 30.3781 114.9967 247° West  Level Estimated
11:45AM 30.3397 114.8938 247° West  Level Estimated
11:46AM 30.3012 114.7910 247° West  Level Estimated
11:47AM 30.2626 114.6882 247° West  Level Estimated
11:48AM 30.2239 114.5855 246° West  Level Estimated
11:49AM 30.1851 114.4829 246° West  Level Estimated
11:50AM 30.1463 114.3804 246° West  Level Estimated
11:51AM 30.1074 114.2779 246° West  Level Estimated
11:52AM 30.0684 114.1756 246° West  Level Estimated
11:53AM 30.0293 114.0733 246° West  Level Estimated
11:54AM 29.9901 113.9711 246° West  Level Estimated
11:55AM 29.9509 113.8690 246° West  Level Estimated
11:56AM 29.9116 113.7669 246° West  Level Estimated
11:57AM 29.8722 113.6650 246° West  Level Estimated
11:58AM 29.8327 113.5631 246° West  Level Estimated
11:59AM 29.7932 113.4613 246° West  Level Estimated
12:00PM 29.7535 113.3596 246° West  Level Estimated
12:01PM 29.7138 113.2579 246° West  Level Estimated
12:02PM 29.6740 113.1564 246° West  Level Estimated
12:03PM 29.6342 113.0549 246° West  Level Estimated
12:04PM 29.5942 112.9535 246° West  Level Estimated
12:05PM 29.5542 112.8522 246° West  Level Estimated
12:06PM 29.5141 112.7510 246° West  Level Estimated
12:07PM 29.4740 112.6498 246° West  Level Estimated
12:08PM 29.4337 112.5487 245° Southwest  Level Estimated
12:09PM 29.3934 112.4477 245° Southwest  Level Estimated
12:10PM 29.3530 112.3468 245° Southwest  Level Estimated
12:11PM 29.3125 112.2460 245° Southwest  Level Estimated
12:12PM 29.2720 112.1452 245° Southwest  Level Estimated
12:13PM 29.2314 112.0446 245° Southwest  Level Estimated
12:14PM 29.1907 111.9440 245° Southwest  Level Estimated
12:15PM 29.1499 111.8435 245° Southwest  Level Estimated
12:16PM 29.1090 111.7430 245° Southwest  Level Estimated
12:17PM 29.0681 111.6427 245° Southwest  Level Estimated
12:18PM 29.0271 111.5424 245° Southwest  Level Estimated
12:19PM 28.9860 111.4422 245° Southwest  Level Estimated
12:20PM 28.9449 111.3421 245° Southwest  Level Estimated
12:21PM 28.9037 111.2420 245° Southwest  Level Estimated
12:22PM 28.8624 111.1421 245° Southwest  Level Estimated
12:23PM 28.8210 111.0422 245° Southwest  Level Estimated
12:24PM 28.7796 110.9424 245° Southwest  Level Estimated
12:25PM 28.7381 110.8427 245° Southwest  Level Estimated
12:26PM 28.6965 110.7430 245° Southwest  Level Estimated
12:27PM 28.6548 110.6435 245° Southwest  Level Estimated
12:28PM 28.6131 110.5440 244° Southwest  Level Estimated
12:29PM 28.5713 110.4446 244° Southwest  Level Estimated
12:30PM 28.5294 110.3453 244° Southwest  Level Estimated
12:31PM 28.4874 110.2460 244° Southwest  Level Estimated
12:32PM 28.4454 110.1469 244° Southwest  Level Estimated
12:33PM 28.4033 110.0478 244° Southwest  Level Estimated
12:34PM 28.3611 109.9488 244° Southwest  Level Estimated
12:35PM 28.3189 109.8499 244° Southwest  Level Estimated
12:36PM 28.2766 109.7510 244° Southwest  Level Estimated
12:37PM 28.2342 109.6522 244° Southwest  Level Estimated
12:38PM 28.1918 109.5535 244° Southwest  Level Estimated
12:39PM 28.1492 109.4549 244° Southwest  Level Estimated
12:40PM 28.1066 109.3564 244° Southwest  Level Estimated
12:41PM 28.0640 109.2579 244° Southwest  Level Estimated
12:42PM 28.0212 109.1595 244° Southwest  Level Estimated
12:43PM 27.9784 109.0612 244° Southwest  Level Estimated
12:44PM 27.9356 108.9630 244° Southwest  Level Estimated
12:45PM 27.8926 108.8649 244° Southwest  Level Estimated
12:46PM 27.8496 108.7668 244° Southwest  Level Estimated
12:47PM 27.8065 108.6688 244° Southwest  Level Estimated
12:48PM 27.7634 108.5709 244° Southwest  Level Estimated
12:49PM 27.7202 108.4731 243° Southwest  Level Estimated
12:50PM 27.6769 108.3753 243° Southwest  Level Estimated
12:51PM 27.6335 108.2776 243° Southwest  Level Estimated
12:52PM 27.5901 108.1800 243° Southwest  Level Estimated
12:53PM 27.5466 108.0825 243° Southwest  Level Estimated
12:54PM 27.5030 107.9851 243° Southwest  Level Estimated
12:55PM 27.4594 107.8877 243° Southwest  Level Estimated
12:56PM 27.4157 107.7904 243° Southwest  Level Estimated
12:57PM 27.3719 107.6932 243° Southwest  Level Estimated
12:58PM 27.3281 107.5960 243° Southwest  Level Estimated
12:59PM 27.2842 107.4990 243° Southwest  Level Estimated
01:00PM 27.2402 107.4020 243° Southwest  Level Estimated
01:01PM 27.1962 107.3051 243° Southwest  Level Estimated
01:02PM 27.1521 107.2083 243° Southwest  Level Estimated
01:03PM 27.1079 107.1115 243° Southwest  Level Estimated
01:04PM 27.0637 107.0148 243° Southwest  Level Estimated
01:05PM 27.0194 106.9182 243° Southwest  Level Estimated
01:06PM 26.9750 106.8217 243° Southwest  Level Estimated
01:07PM 26.9306 106.7252 243° Southwest  Level Estimated
01:08PM 26.8861 106.6289 243° Southwest  Level Estimated
01:09PM 26.8416 106.5326 243° Southwest  Level Estimated
01:10PM 26.7969 106.4363 243° Southwest  Level Estimated
01:11PM 26.7523 106.3402 243° Southwest  Level Estimated
01:12PM 26.7075 106.2441 242° Southwest  Level Estimated
01:13PM 26.6627 106.1481 242° Southwest  Level Estimated
01:14PM 26.6178 106.0522 242° Southwest  Level Estimated
01:15PM 26.5728 105.9564 242° Southwest  Level Estimated
01:16PM 26.5278 105.8606 242° Southwest  Level Estimated
01:17PM 26.4827 105.7649 242° Southwest  Level Estimated
01:18PM 26.4376 105.6693 242° Southwest  Level Estimated
01:19PM 26.3924 105.5737 242° Southwest  Level Estimated
01:20PM 26.3471 105.4782 242° Southwest  Level Estimated
01:21PM 26.3018 105.3829 242° Southwest  Level Estimated
01:22PM 26.2564 105.2875 242° Southwest  Level Estimated
01:23PM 26.2110 105.1923 242° Southwest  Level Estimated
01:24PM 26.1654 105.0971 242° Southwest  Level Estimated
01:25PM 26.1199 105.0020 242° Southwest  Level Estimated
01:26PM 26.0742 104.9070 242° Southwest  Level Estimated
01:27PM 26.0285 104.8120 242° Southwest  Level Estimated
01:28PM 25.9827 104.7172 242° Southwest  Level Estimated
01:29PM 25.9369 104.6224 242° Southwest  Level Estimated
01:30PM 25.8910 104.5276 242° Southwest  Level Estimated
01:31PM 25.8451 104.4330 242° Southwest  Level Estimated
01:32PM 25.7990 104.3384 242° Southwest  Level Estimated
01:33PM 25.7530 104.2439 242° Southwest  Level Estimated
01:34PM 25.7068 104.1495 242° Southwest  Level Estimated
01:35PM 25.6606 104.0551 242° Southwest  Level Estimated
01:36PM 25.6144 103.9608 241° Southwest  Level Estimated
01:37PM 25.5681 103.8666 241° Southwest  Level Estimated
01:38PM 25.5217 103.7725 241° Southwest  Level Estimated
01:39PM 25.4752 103.6784 241° Southwest  Level Estimated
01:40PM 25.4287 103.5844 241° Southwest  Level Estimated
01:41PM 25.3822 103.4905 241° Southwest  Level Estimated
01:42PM 25.3356 103.3966 241° Southwest  Level Estimated
01:43PM 25.2889 103.3028 241° Southwest  Level Estimated
01:44PM 25.2421 103.2091 241° Southwest  Level Estimated
01:45PM 25.1954 103.1155 241° Southwest  Level Estimated
01:46PM 25.1485 103.0219 241° Southwest  Level Estimated
01:47PM 25.1019 102.9292 241° Southwest  Level Estimated
01:48PM 25.1019 102.9292 North  Level Estimated
01:49PM 25.1019 102.9292 North  Level Estimated
01:50PM 25.1019 102.9292 North  Level Estimated
01:51PM 25.1019 102.9292 North  Level Estimated
01:52PM 25.1019 102.9292 North  Level Estimated
01:53PM 25.1019 102.9292 North  Level Estimated
01:54PM 25.1019 102.9292 North  Level Estimated
01:55PM 25.1019 102.9292 North  Level Estimated
01:56PM 25.1019 102.9292 North  Level Estimated
01:57PM 25.1019 102.9292 North  Level Estimated
01:58PM 25.1019 102.9292 North  Level Estimated
01:59PM 25.1019 102.9292 North  Level Estimated
02:00PM 25.1019 102.9292 North  Level Estimated
02:01PM 25.1019 102.9292 North  Level Estimated
02:02PM 25.1019 102.9292 North  Level Estimated
02:03PM 25.1019 102.9292 North  Level Estimated